CFMD toutes catégorie Fameck - Ranguevaux (57) - G

Date : 04/06/2011
Distance : 3,000 km

Place Nom Licence Catégorie Club Temps min/km CN à J-60 Points Différence Nouveau CN
1 DEVILLE Nelly 2401 D60 5402LO 0:38:13 12'44 4511 4653 +142 4866
2 CROCHET Gerard 2817 H70 1705PC 0:42:45 14'15 4172 4160 -12 4202
3 DIEUDONNE Madeleine 1380 D60 7808IF 0:43:19 14'26 3923 4105 +182 4045
4 BLASCO Nicole 395 D65 2406AQ 0:44:49 14'56 3279 3968 +689 3840
5 ROBERT Martine 1087 D60 7004FC 0:49:43 16'34 3600 3577 -23 3692
6 THIEBAULD Georges 4389 H70 8809LO 0:50:42 16'54 2940 3508 +568 3317
7 ROBERT Francoise 6491 D60 6913RA 0:50:58 16'59 3533 3489 -44 3821
8 AGUILLE Veronique 9904 D60 1403NM 0:52:46 17'35 2659 3370 +711 2759
9 ABISSE Gisele 701 D65 2508FC 0:54:54 18'18 3025 3239 +214 3344
10 OUDIN M-Reine 7574 D60 6804AL 0:56:00 18'40 3726 3176 -550 3701
11 KENANE Abdelkader 1448 H70 5501LO 0:57:11 19'03 4285 3110 -1175 4391
12 ETIENNE Bernadette 15324 D60 8807LO 0:57:33 19'11 2260 3090 +830 2667
13 LEFOUEST Joseph 1000 H70 2904BR 0:57:44 19'14 3396 3080 -316 3337
14 RIFFARD J-Claude 2445 H70 5702LO 0:57:51 19'17 3101 3074 -27 3225
15 DESAINTJAN Claude 2547 H70 6804AL 0:58:15 19'25 2920 3053 +133 3163
16 HABERKORN Didier 2716 H70 2105BO 0:58:30 19'30 3364 3040 -324 3166
17 RIFFARD M-Lucie 2446 D65 5702LO 0:58:51 19'37 2758 3022 +264 3027
18 LEMERCIER Jocelyne 2474 D60 5407LO 1:00:22 20'07 2735 2946 +211 3008
19 SIMONET Marie 931 D60 7707IF 1:01:26 20'28 2724 2895 +171 2904
20 MOULIERE M-Bernadette 2888 D65 0207PI 1:01:40 20'33 3138 2884 -254 3225
21 JEANPIERRE M-Therese 3302 D65 8809LO 1:04:34 21'31 3105 2754 -351 3171
22 RICHARD Nicole 14245 D60 0207PI 1:05:15 21'45 3294 2725 -569 3273
23 HODSON Michael 2404 H70 5402LO 1:05:53 21'57 2715 2699 -16 3060
24 PEETERS Simone 295 D70 7703IF 1:08:36 22'52 2542 2592 +50 2565
25 BAUDOIN Annie 16634 D60 0615AZ 1:14:48 24'56 2494 2377 -117 2729
26 POGU Paulette 4671 D60 5402LO 1:15:40 25'13 2992 2350 -642 2977
27 HARDEL Elisabeth 8998 D60 1403NM 1:16:41 25'33 0 2319 2188
28 DODIN Genevieve 4392 D60 8809LO 1:17:50 25'56 2387 2285 -102 2471
29 THIEBAULT M-Paule 4490 D60 6804AL 1:19:18 26'26 1961 2243 +282 2114
30 ALLANCON Claudine 14632 D60 2906BR 1:28:36 29'32 2058 2007 -51 1993
31 LEFOUEST M-Therese 1001 D70 2904BR 1:31:21 30'27 2293 1947 -346 2240
32 LUDEWIG-JAMES Carol 15894 D70 5907NO 1:31:59 30'39 2414 1933 -481 2367
33 ROLLET Marie-Madeleine 2413 D65 5415LO 1:33:02 31'00 2095 1911 -184 2448
34 LAURENT Therese 725 D70 2508FC 1:34:57 31'39 1891 1873 -18 2253
35 BASTIEN-FATH Nicole 8954 D65 5402LO 1:35:44 31'54 2249 1858 -391 2340
36 DESAINTJAN Alice 2546 D70 6804AL 1:42:45 34'15 1813 1731 -82 2122
CABON Monique 96 D60 2904BR pm None 2839 0 2871